Latest Weather Observations for Cape Otway

IDV60801

Issued at 11:42 pm EST Sunday 9 August 2020 (issued every 10 minutes, with the page automatically refreshed every 10 minutes)

About weather observations | Map of weather stations | Latest weather observations for VIC | Other Formats
Station Details ID: 090015 Name: CAPE OTWAY LIGHTHOUSE Lat: -38.86 Lon: 143.51 Height: 82.0 m
Data from the previous 72 hours. | See also: Recent months at Cape Otway
Date/Time
EST
Temp
°C
App
Temp
°C
Dew
Point
°C
Rel
Hum
%
Delta-T
°C
Wind Press
QNH
hPa
Press
MSL
hPa
Rain since
9am
mm
Dir  Spd
km/h
Gust
km/h
Spd
kts
Gust
kts
09/11:30pm 10.7 5.0 6.5 75 2.0 ESE 26 35 14 19 1023.2 1023.3 0.0
09/11:00pm 10.7 5.4 6.6 76 1.9 ESE 24 35 13 19 1023.2 1023.3 0.0
09/10:30pm 10.9 5.2 6.8 76 1.9 ESE 26 35 14 19 1023.2 1023.3 0.0
09/10:00pm 10.9 5.6 7.0 77 1.9 E 24 35 13 19 1023.0 1023.1 0.0
09/09:30pm 10.9 4.5 7.0 77 1.9 ESE 30 39 16 21 1022.8 1022.9 0.0
09/09:00pm 11.0 5.1 7.3 78 1.8 ESE 28 37 15 20 1022.9 1023.0 0.0
09/08:30pm 11.1 4.4 7.4 78 1.8 ESE 32 39 17 21 1022.8 1022.9 0.0
09/08:00pm 11.0 5.0 7.1 77 1.9 ESE 28 37 15 20 1022.8 1022.9 0.0
09/07:30pm 10.9 4.9 7.0 77 1.9 ESE 28 37 15 20 1022.7 1022.8 0.0
09/07:00pm 11.0 4.6 6.9 76 1.9 ESE 30 39 16 21 1022.8 1022.9 0.0
09/06:30pm 11.1 4.3 7.0 76 2.0 ESE 32 39 17 21 1022.6 1022.7 0.0
09/06:00pm 11.3 4.3 6.8 74 2.1 ESE 33 44 18 24 1022.4 1022.5 0.0
09/05:30pm 11.5 4.8 7.2 75 2.1 ESE 32 41 17 22 1022.2 1022.3 0.0
09/05:00pm 11.7 4.8 7.2 74 2.2 ESE 33 43 18 23 1021.9 1022.0 0.0
09/04:30pm 11.5 4.2 7.2 75 2.1 ESE 35 46 19 25 1021.6 1021.7 0.0
09/04:00pm 11.8 3.8 7.5 75 2.1 ESE 39 48 21 26 1021.4 1021.5 0.0
09/03:30pm 12.1 4.1 7.6 74 2.2 ESE 39 50 21 27 1021.2 1021.3 0.0
09/03:00pm 12.2 4.6 7.7 74 2.2 ESE 37 50 20 27 1021.0 1021.1 0.0
09/02:30pm 12.1 4.9 7.6 74 2.2 ESE 35 46 19 25 1021.0 1021.1 0.0
09/02:00pm 11.9 4.0 7.8 76 2.0 ESE 39 50 21 27 1021.0 1021.1 0.0
09/01:30pm 12.0 4.2 8.1 77 1.9 ESE 39 48 21 26 1021.3 1021.4 0.0
09/01:00pm 11.9 4.5 8.2 78 1.8 ESE 37 46 20 25 1021.6 1021.7 0.0
09/12:30pm 11.7 4.2 8.0 78 1.8 ESE 37 52 20 28 1021.8 1021.9 0.0
09/12:26pm 11.8 5.1 8.1 78 1.8 ESE 33 52 18 28 1021.8 1021.9 0.0
09/12:00pm 12.0 4.2 8.1 77 1.9 ESE 39 52 21 28 1022.0 1022.1 0.0
09/11:30am 12.3 4.6 8.8 79 1.8 ESE 39 50 21 27 1022.2 1022.3 0.0
09/11:00am 11.6 3.9 8.5 81 1.5 ESE 39 56 21 30 1022.0 1022.1 0.0
09/10:30am 11.5 2.9 8.2 80 1.6 ESE 43 54 23 29 1022.0 1022.1 0.0
09/10:00am 11.5 4.0 8.0 79 1.7 ESE 37 52 20 28 1021.8 1021.9 0.0
09/09:39am 11.4 3.5 7.9 79 1.7 ESE 39 57 21 31 1021.8 1021.9 0.0
09/09:30am 11.5 3.3 8.0 79 1.7 ESE 41 54 22 29 1021.6 1021.7 0.0
09/09:13am 11.2 2.6 8.1 81 1.5 ESE 43 61 23 33 1021.6 1021.7 0.0
09/09:00am 10.9 3.5 8.3 84 1.3 ESE 37 52 20 28 1021.5 1021.6 0.4
09/08:52am 11.1 3.4 8.8 86 1.1 ESE 39 57 21 31 1021.3 1021.4 0.4
09/08:30am 10.7 3.0 8.6 87 1.0 ESE 39 54 21 29 1021.4 1021.5 0.4
09/08:00am 10.7 3.5 9.0 89 0.8 ESE 37 48 20 26 1021.1 1021.2 0.4
09/07:30am 10.1 2.3 8.4 89 0.8 ESE 39 61 21 33 1020.7 1020.8 0.2
09/07:04am 9.7 3.1 7.6 87 1.0 E 32 50 17 27 1020.8 1020.9 0.2
09/07:00am 10.0 2.5 7.9 87 1.0 ESE 37 52 20 28 1020.8 1020.9 0.2
09/06:30am 10.5 1.7 7.9 84 1.3 ESE 44 57 24 31 1020.3 1020.4 0.0
09/06:00am 11.0 2.7 7.9 81 1.5 ESE 41 52 22 28 1020.2 1020.3 0.0
09/05:30am 10.8 3.6 7.7 81 1.5 ESE 35 50 19 27 1020.3 1020.4 0.0
09/05:25am 10.7 4.1 7.8 82 1.4 E 32 50 17 27 1020.3 1020.4 0.0
09/05:00am 11.0 3.9 7.9 81 1.5 E 35 50 19 27 1020.4 1020.5 0.0
09/04:30am 11.0 3.5 7.9 81 1.5 ESE 37 52 20 28 1020.1 1020.2 0.0
09/04:19am 11.3 4.8 8.0 80 1.6 ESE 32 50 17 27 1020.1 1020.2 0.0
09/04:00am 11.1 4.3 7.6 79 1.7 ESE 33 46 18 25 1019.9 1020.0 0.0
09/03:30am 11.1 3.1 7.4 78 1.8 ESE 39 52 21 28 1019.6 1019.7 0.0
09/03:00am 11.2 2.8 7.3 77 1.9 ESE 41 54 22 29 1019.6 1019.7 0.0
09/02:45am 11.4 4.1 7.3 76 2.0 E 35 54 19 29 1019.7 1019.8 0.0
09/02:30am 11.1 2.6 7.0 76 2.0 ESE 41 54 22 29 1019.8 1019.9 0.0
09/02:04am 11.0 4.0 6.9 76 2.0 E 33 52 18 28 1020.1 1020.2 0.0
09/02:00am 11.1 4.4 7.2 77 1.9 E 32 48 17 26 1020.2 1020.3 0.0
09/01:38am 11.1 5.1 7.2 77 1.9 E 28 46 15 25 1020.2 1020.3 0.0
09/01:30am 11.1 5.1 7.2 77 1.9 E 28 43 15 23 1020.4 1020.5 0.0
09/01:24am 11.3 4.6 7.4 77 1.9 E 32 50 17 27 1020.4 1020.5 0.0
09/01:00am 11.2 4.0 7.5 78 1.8 ESE 35 48 19 26 1020.4 1020.5 0.0
09/12:30am 11.3 3.8 7.8 79 1.7 ESE 37 48 20 26 1020.2 1020.3 0.0
09/12:00am 11.4 4.3 7.9 79 1.7 ESE 35 48 19 26 1020.5 1020.6 0.0
 
Date/Time
EST
Temp
°C
App
Temp
°C
Dew
Point
°C
Rel
Hum
%
Delta-T
°C
Wind Press
QNH
hPa
Press
MSL
hPa
Rain since
9am
mm
Dir  Spd
km/h
Gust
km/h
Spd
kts
Gust
kts
08/11:30pm 11.4 4.3 8.1 80 1.6 ESE 35 50 19 27 1020.5 1020.6 0.0
08/11:14pm 11.5 5.4 8.2 80 1.6 E 30 48 16 26 1020.5 1020.6 0.0
08/11:00pm 11.3 4.8 8.0 80 1.6 E 32 46 17 25 1020.3 1020.4 0.0
08/10:30pm 11.5 5.1 8.4 81 1.5 E 32 50 17 27 1020.2 1020.3 0.0
08/10:05pm 11.6 5.9 8.5 81 1.5 E 28 48 15 26 1020.0 1020.1 0.0
08/10:00pm 11.6 6.3 8.5 81 1.5 E 26 46 14 25 1020.0 1020.1 0.0
08/09:44pm 11.6 5.9 8.5 81 1.5 E 28 46 15 25 1019.9 1020.0 0.0
08/09:30pm 11.6 6.7 8.5 81 1.5 E 24 43 13 23 1019.9 1020.0 0.0
08/09:01pm 11.7 5.7 8.6 81 1.5 E 30 48 16 26 1019.8 1019.9 0.0
08/09:00pm 11.6 5.2 8.5 81 1.5 E 32 48 17 26 1019.8 1019.9 0.0
08/08:35pm 11.6 6.0 8.6 82 1.5 E 28 46 15 25 1019.8 1019.9 0.0
08/08:30pm 11.6 5.2 8.6 82 1.5 E 32 48 17 26 1019.7 1019.8 0.0
08/08:03pm 11.6 6.0 8.6 82 1.5 E 28 46 15 25 1019.6 1019.7 0.0
08/08:00pm 11.8 6.2 8.8 82 1.5 E 28 44 15 24 1019.5 1019.6 0.0
08/07:30pm 11.7 5.7 8.7 82 1.5 E 30 48 16 26 1019.2 1019.3 0.0
08/07:00pm 11.7 5.4 8.9 83 1.4 E 32 50 17 27 1019.0 1019.1 0.0
08/06:30pm 11.6 5.7 9.2 85 1.2 E 30 56 16 30 1018.9 1019.0 0.0
08/06:01pm 11.6 5.2 9.2 85 1.2 E 33 52 18 28 1018.5 1018.6 0.0
08/06:00pm 11.6 4.8 9.2 85 1.2 E 35 52 19 28 1018.4 1018.5 0.0
08/05:30pm 11.6 4.8 9.2 85 1.2 E 35 54 19 29 1017.9 1018.0 0.0
08/05:00pm 11.6 4.8 9.2 85 1.2 E 35 63 19 34 1017.6 1017.7 0.0
08/04:30pm 11.6 3.2 9.0 84 1.3 E 43 76 23 41 1016.9 1016.9 0.0
08/04:00pm 11.8 3.5 9.2 84 1.3 E 43 65 23 35 1016.6 1016.6 0.0
08/03:30pm 11.8 3.5 9.2 84 1.3 E 43 65 23 35 1016.7 1016.7 0.0
08/03:00pm 11.7 3.8 9.3 85 1.2 E 41 63 22 34 1016.7 1016.7 0.0
08/02:30pm 11.8 3.5 9.4 85 1.2 E 43 67 23 36 1016.8 1016.8 0.0
08/02:00pm 11.7 4.2 9.4 86 1.2 E 39 61 21 33 1016.8 1016.8 0.0
08/01:30pm 11.5 4.0 9.4 87 1.1 E 39 63 21 34 1017.0 1017.0 0.0
08/01:00pm 11.5 3.1 9.1 85 1.2 E 43 63 23 34 1017.4 1017.5 0.0
08/12:30pm 11.6 3.2 8.8 83 1.4 E 43 67 23 36 1017.8 1017.9 0.0
08/12:00pm 12.0 3.6 9.0 82 1.5 E 43 70 23 38 1017.8 1017.9 0.0
08/11:30am 11.7 3.3 8.9 83 1.4 E 43 70 23 38 1018.1 1018.2 0.0
08/11:00am 11.6 3.6 9.0 84 1.3 E 41 70 22 38 1018.1 1018.2 0.0
08/10:30am 11.7 3.4 9.3 85 1.2 E 43 69 23 37 1018.1 1018.2 0.0
08/10:00am 11.8 4.3 9.4 85 1.2 E 39 61 21 33 1017.8 1017.9 0.0
08/09:30am 11.7 4.2 9.4 86 1.2 E 39 67 21 36 1017.6 1017.7 0.0
08/09:00am 11.4 3.1 9.3 87 1.1 E 43 69 23 37 1017.4 1017.5 6.2
08/08:30am 11.2 2.7 9.3 88 1.0 E 44 72 24 39 1017.3 1017.4 6.2
08/08:00am 11.3 3.1 9.6 89 0.9 E 43 70 23 38 1016.9 1016.9 6.2
08/07:30am 11.3 3.1 9.6 89 0.9 E 43 69 23 37 1016.8 1016.8 6.2
08/07:00am 11.2 3.0 9.6 90 0.8 E 43 70 23 38 1016.8 1016.8 6.2
08/06:30am 10.9 3.0 9.5 91 0.7 E 41 67 22 36 1016.6 1016.6 6.2
08/06:00am 11.0 3.5 9.6 91 0.7 E 39 61 21 33 1016.7 1016.7 6.2
08/05:30am 10.8 2.9 9.4 91 0.7 E 41 70 22 38 1016.5 1016.5 5.8
08/05:00am 10.8 4.0 9.4 91 0.7 E 35 61 19 33 1016.6 1016.6 5.2
08/04:30am 10.9 3.8 9.5 91 0.7 E 37 65 20 35 1016.6 1016.6 4.4
08/04:00am 10.6 3.7 9.0 90 0.8 E 35 57 19 31 1016.7 1016.7 4.2
08/03:30am 10.6 3.7 8.9 89 0.8 E 35 57 19 31 1016.8 1016.8 3.8
08/03:00am 10.6 4.3 8.9 89 0.8 E 32 56 17 30 1017.0 1017.0 3.6
08/02:30am 10.7 3.5 9.0 89 0.8 E 37 65 20 35 1016.9 1016.9 2.8
08/02:00am 10.7 3.5 9.0 89 0.8 E 37 56 20 30 1017.2 1017.3 2.4
08/01:30am 10.6 3.3 8.9 89 0.8 E 37 57 20 31 1017.0 1017.0 2.2
08/01:00am 10.5 3.2 8.6 88 0.9 E 37 63 20 34 1017.1 1017.2 1.6
08/12:30am 11.0 3.3 8.6 85 1.2 E 39 57 21 31 1017.4 1017.5 0.6
08/12:00am 11.0 3.7 8.6 85 1.2 E 37 63 20 34 1017.5 1017.6 0.2
 
Date/Time
EST
Temp
°C
App
Temp
°C
Dew
Point
°C
Rel
Hum
%
Delta-T
°C
Wind Press
QNH
hPa
Press
MSL
hPa
Rain since
9am
mm
Dir  Spd
km/h
Gust
km/h
Spd
kts
Gust
kts
07/11:30pm 11.0 3.1 7.9 81 1.5 E 39 65 21 35 1017.8 1017.9 0.2
07/11:00pm 11.7 3.6 6.8 72 2.3 E 39 63 21 34 1018.0 1018.1 0.0
07/10:30pm 11.5 2.8 7.6 77 1.9 E 43 67 23 36 1018.3 1018.4 0.0
07/10:00pm 11.5 2.7 7.4 76 2.0 E 43 65 23 35 1018.5 1018.6 0.0
07/09:30pm 11.5 3.5 7.6 77 1.9 E 39 69 21 37 1018.4 1018.5 0.0
07/09:00pm 11.5 3.2 7.8 78 1.8 E 41 70 22 38 1018.6 1018.7 0.0
07/08:30pm 11.6 3.2 7.5 76 2.0 E 41 63 22 34 1018.7 1018.8 0.0
07/08:00pm 11.4 2.6 7.1 75 2.1 E 43 65 23 35 1018.8 1018.9 0.0
07/07:30pm 11.4 2.9 7.1 75 2.1 E 41 69 22 37 1018.5 1018.6 0.0
07/07:00pm 11.2 3.2 7.3 77 1.9 E 39 69 21 37 1018.3 1018.4 0.0
07/06:30pm 11.1 3.0 7.0 76 2.0 E 39 69 21 37 1018.2 1018.3 0.0
07/06:00pm 10.9 1.9 6.6 75 2.0 E 43 63 23 34 1018.0 1018.1 0.0
07/05:30pm 11.0 3.1 6.4 73 2.2 E 37 67 20 36 1018.2 1018.3 0.0
07/05:00pm 11.0 3.1 6.4 73 2.2 E 37 61 20 33 1018.7 1018.8 0.0
07/04:30pm 11.1 3.7 6.6 74 2.1 E 35 59 19 32 1018.7 1018.8 0.0
07/04:00pm 11.1 3.3 6.6 74 2.1 E 37 61 20 33 1019.0 1019.1 0.0
07/03:30pm 10.9 2.6 6.3 73 2.2 E 39 61 21 33 1019.1 1019.2 0.0
07/03:00pm 11.1 4.0 6.5 73 2.2 E 33 57 18 31 1018.8 1018.9 0.0
07/02:30pm 11.2 2.6 6.7 74 2.1 E 41 65 22 35 1018.3 1018.4 0.0
07/02:00pm 11.2 2.6 6.5 73 2.2 E 41 59 22 32 1018.8 1018.9 0.0
07/01:30pm 11.6 4.2 6.7 72 2.3 E 35 69 19 37 1019.4 1019.5 0.0
07/01:00pm 11.6 3.4 6.5 71 2.4 E 39 61 21 33 1019.5 1019.6 0.0
07/12:30pm 11.7 3.8 6.4 70 2.5 E 37 69 20 37 1019.3 1019.4 0.0
07/12:00pm 11.9 4.4 6.4 69 2.6 E 35 56 19 30 1020.0 1020.1 0.0
07/11:30am 12.1 5.1 5.9 66 2.9 E 32 57 17 31 1020.7 1020.8 0.0
07/11:02am 11.9 5.3 6.0 67 2.8 E 30 50 16 27 1021.1 1021.2 0.0
07/11:00am 11.7 5.0 5.8 67 2.7 E 30 46 16 25 1021.1 1021.2 0.0
07/10:39am 12.0 5.5 6.3 68 2.7 E 30 48 16 26 1021.4 1021.5 0.0
07/10:30am 11.6 5.0 5.9 68 2.7 E 30 46 16 25 1021.3 1021.4 0.0
07/10:00am 11.6 4.7 6.3 70 2.5 E 32 54 17 29 1021.3 1021.4 0.0
07/09:43am 11.4 4.4 6.1 70 2.5 E 32 52 17 28 1021.3 1021.4 0.0
07/09:30am 11.3 4.7 6.2 71 2.4 E 30 46 16 25 1021.2 1021.3 0.0
07/09:00am 11.2 4.2 5.9 70 2.5 E 32 54 17 29 1021.4 1021.5 0.2
07/08:30am 11.4 3.9 6.3 71 2.4 E 35 57 19 31 1021.2 1021.3 0.2
07/08:00am 11.1 2.4 5.8 70 2.5 E 41 69 22 37 1021.0 1021.1 0.2
07/07:30am 11.0 3.3 5.3 68 2.6 E 35 56 19 30 1021.1 1021.2 0.2
07/07:02am 10.8 3.5 4.5 65 2.8 E 32 50 17 27 1021.1 1021.2 0.2
07/07:00am 10.7 3.2 4.2 64 2.9 E 33 50 18 27 1021.1 1021.2 0.2
07/06:30am 10.6 3.2 4.1 64 2.9 E 32 57 17 31 1021.5 1021.6 0.2
07/06:00am 10.5 2.6 4.2 65 2.8 E 35 56 19 30 1022.0 1022.1 0.2
07/05:30am 10.4 2.8 3.9 64 2.9 E 33 56 18 30 1021.6 1021.7 0.2
07/05:04am 10.2 2.6 3.9 65 2.8 E 33 54 18 29 1021.4 1021.5 0.2
07/05:00am 10.1 2.5 3.8 65 2.8 E 33 48 18 26 1021.6 1021.7 0.2
07/04:30am 9.9 2.5 3.9 66 2.6 E 32 52 17 28 1021.5 1021.6 0.2
07/04:05am 9.9 2.5 3.9 66 2.6 E 32 50 17 27 1021.5 1021.6 0.2
07/04:00am 10.0 2.5 4.2 67 2.6 E 33 48 18 26 1021.6 1021.7 0.2
07/03:30am 10.1 4.0 4.9 70 2.4 E 26 41 14 22 1021.9 1022.0 0.2
07/03:00am 10.0 4.7 5.0 71 2.3 E 22 35 12 19 1021.6 1021.7 0.2
07/02:30am 9.7 4.0 4.7 71 2.2 E 24 39 13 21 1022.3 1022.4 0.2
07/02:00am 9.8 3.7 4.8 71 2.2 E 26 35 14 19 1022.4 1022.5 0.2
07/01:30am 9.8 4.1 4.8 71 2.3 E 24 39 13 21 1022.5 1022.6 0.2
07/01:00am 10.1 4.9 5.3 72 2.2 E 22 43 12 23 1021.9 1022.0 0.2
07/12:30am 10.0 5.1 5.0 71 2.3 E 20 35 11 19 1021.9 1022.0 0.2
07/12:00am 10.1 4.8 4.9 70 2.3 E 22 39 12 21 1021.8 1021.9 0.2

Other formats

Comma delimited format used in spreadsheet applications
http://www.bom.gov.au/fwo/IDV60801/IDV60801.94842.axf

JavaScript Object Notation format (JSON) in row-major order
http://www.bom.gov.au/fwo/IDV60801/IDV60801.94842.json

Data quality

Most of these data are generated automatically and are frequently updated. Quality checks on data are not normally performed. It is possible for incorrect values to appear. Refer to information at About Latest Weather Observations and please check the disclaimer before using these data.